sensor_id;sensor_type;location;lat;lon;timestamp;temperature;humidity
53282;DHT22;39167;52.794;6.892;2023-02-22T00:00:50;8.70;99.90
53282;DHT22;39167;52.794;6.892;2023-02-22T00:03:25;8.60;99.90
53282;DHT22;39167;52.794;6.892;2023-02-22T00:05:53;8.70;99.90
53282;DHT22;39167;52.794;6.892;2023-02-22T00:08:21;8.60;99.90
53282;DHT22;39167;52.794;6.892;2023-02-22T00:10:47;8.60;99.90
53282;DHT22;39167;52.794;6.892;2023-02-22T00:13:16;8.60;99.90
53282;DHT22;39167;52.794;6.892;2023-02-22T00:15:42;8.60;99.90
53282;DHT22;39167;52.794;6.892;2023-02-22T00:18:13;8.60;99.90
53282;DHT22;39167;52.794;6.892;2023-02-22T00:20:39;8.70;99.90
53282;DHT22;39167;52.794;6.892;2023-02-22T00:23:07;8.60;99.90
53282;DHT22;39167;52.794;6.892;2023-02-22T00:25:34;8.60;99.90
53282;DHT22;39167;52.794;6.892;2023-02-22T00:28:01;8.60;99.90
53282;DHT22;39167;52.794;6.892;2023-02-22T00:30:28;8.60;99.90
53282;DHT22;39167;52.794;6.892;2023-02-22T00:32:56;8.60;99.90
53282;DHT22;39167;52.794;6.892;2023-02-22T00:35:24;8.60;99.90
53282;DHT22;39167;52.794;6.892;2023-02-22T00:37:53;8.60;99.90
53282;DHT22;39167;52.794;6.892;2023-02-22T00:40:22;8.60;99.90
53282;DHT22;39167;52.794;6.892;2023-02-22T00:42:49;8.60;99.90
53282;DHT22;39167;52.794;6.892;2023-02-22T00:45:17;8.60;99.90
53282;DHT22;39167;52.794;6.892;2023-02-22T00:47:42;8.60;99.90
53282;DHT22;39167;52.794;6.892;2023-02-22T00:50:08;8.60;99.90
53282;DHT22;39167;52.794;6.892;2023-02-22T00:52:35;8.60;99.90
53282;DHT22;39167;52.794;6.892;2023-02-22T00:55:01;8.60;99.90
53282;DHT22;39167;52.794;6.892;2023-02-22T00:57:27;8.60;99.90
53282;DHT22;39167;52.794;6.892;2023-02-22T00:59:53;8.70;99.90
53282;DHT22;39167;52.794;6.892;2023-02-22T01:02:18;8.60;99.90
53282;DHT22;39167;52.794;6.892;2023-02-22T01:04:44;8.60;99.90
53282;DHT22;39167;52.794;6.892;2023-02-22T01:07:10;8.60;99.90
53282;DHT22;39167;52.794;6.892;2023-02-22T01:09:36;8.50;99.90
53282;DHT22;39167;52.794;6.892;2023-02-22T01:12:04;8.60;99.90
53282;DHT22;39167;52.794;6.892;2023-02-22T01:14:30;8.50;99.90
53282;DHT22;39167;52.794;6.892;2023-02-22T01:16:56;8.50;99.90
53282;DHT22;39167;52.794;6.892;2023-02-22T01:19:22;8.50;99.90
53282;DHT22;39167;52.794;6.892;2023-02-22T01:21:48;8.50;99.90
53282;DHT22;39167;52.794;6.892;2023-02-22T01:24:15;8.50;99.90
53282;DHT22;39167;52.794;6.892;2023-02-22T01:26:42;8.50;99.90
53282;DHT22;39167;52.794;6.892;2023-02-22T01:29:13;8.50;99.90
53282;DHT22;39167;52.794;6.892;2023-02-22T01:31:41;8.50;99.90
53282;DHT22;39167;52.794;6.892;2023-02-22T01:34:09;8.50;99.90
53282;DHT22;39167;52.794;6.892;2023-02-22T01:36:35;8.50;99.90
53282;DHT22;39167;52.794;6.892;2023-02-22T01:39:02;8.50;99.90
53282;DHT22;39167;52.794;6.892;2023-02-22T01:41:27;8.50;99.90
53282;DHT22;39167;52.794;6.892;2023-02-22T01:43:53;8.50;99.90
53282;DHT22;39167;52.794;6.892;2023-02-22T01:46:24;8.80;99.90
53282;DHT22;39167;52.794;6.892;2023-02-22T01:48:55;8.50;99.90
53282;DHT22;39167;52.794;6.892;2023-02-22T01:51:27;8.50;99.90
53282;DHT22;39167;52.794;6.892;2023-02-22T01:54:06;8.40;99.90
53282;DHT22;39167;52.794;6.892;2023-02-22T01:56:37;8.40;99.90
53282;DHT22;39167;52.794;6.892;2023-02-22T01:59:07;8.50;99.90
53282;DHT22;39167;52.794;6.892;2023-02-22T02:01:35;8.50;99.90
53282;DHT22;39167;52.794;6.892;2023-02-22T02:04:06;8.40;99.90
53282;DHT22;39167;52.794;6.892;2023-02-22T02:06:33;8.40;99.90
53282;DHT22;39167;52.794;6.892;2023-02-22T02:09:20;8.40;99.90
53282;DHT22;39167;52.794;6.892;2023-02-22T02:11:48;8.40;99.90
53282;DHT22;39167;52.794;6.892;2023-02-22T02:14:15;8.40;99.90
53282;DHT22;39167;52.794;6.892;2023-02-22T02:16:44;8.40;99.90
53282;DHT22;39167;52.794;6.892;2023-02-22T02:40:56;8.40;99.90
53282;DHT22;39167;52.794;6.892;2023-02-22T02:43:41;8.40;99.90
53282;DHT22;39167;52.794;6.892;2023-02-22T02:46:33;8.40;99.90
53282;DHT22;39167;52.794;6.892;2023-02-22T02:49:09;8.40;99.90
53282;DHT22;39167;52.794;6.892;2023-02-22T02:51:43;8.40;99.90
53282;DHT22;39167;52.794;6.892;2023-02-22T02:54:10;8.40;99.90
53282;DHT22;39167;52.794;6.892;2023-02-22T02:56:37;8.40;99.90
53282;DHT22;39167;52.794;6.892;2023-02-22T03:18:43;8.30;99.90
53282;DHT22;39167;52.794;6.892;2023-02-22T03:26:30;8.30;99.90
53282;DHT22;39167;52.794;6.892;2023-02-22T03:28:59;8.30;99.90
53282;DHT22;39167;52.794;6.892;2023-02-22T03:31:33;8.30;99.90
53282;DHT22;39167;52.794;6.892;2023-02-22T03:34:16;8.30;99.90
53282;DHT22;39167;52.794;6.892;2023-02-22T03:36:55;8.30;99.90
53282;DHT22;39167;52.794;6.892;2023-02-22T03:39:23;8.60;99.90
53282;DHT22;39167;52.794;6.892;2023-02-22T03:41:59;8.30;99.90
53282;DHT22;39167;52.794;6.892;2023-02-22T03:44:26;8.30;99.90
53282;DHT22;39167;52.794;6.892;2023-02-22T03:46:54;8.30;99.90
53282;DHT22;39167;52.794;6.892;2023-02-22T03:49:34;8.30;99.90
53282;DHT22;39167;52.794;6.892;2023-02-22T03:52:02;8.30;99.90
53282;DHT22;39167;52.794;6.892;2023-02-22T03:54:28;8.20;99.90
53282;DHT22;39167;52.794;6.892;2023-02-22T03:57:07;8.20;99.90
53282;DHT22;39167;52.794;6.892;2023-02-22T03:59:34;8.30;99.90
53282;DHT22;39167;52.794;6.892;2023-02-22T04:02:00;8.20;99.90
53282;DHT22;39167;52.794;6.892;2023-02-22T04:04:26;8.20;99.90
53282;DHT22;39167;52.794;6.892;2023-02-22T04:06:52;8.20;99.90
53282;DHT22;39167;52.794;6.892;2023-02-22T04:09:18;8.20;99.90
53282;DHT22;39167;52.794;6.892;2023-02-22T04:11:44;8.20;99.90
53282;DHT22;39167;52.794;6.892;2023-02-22T04:14:10;8.20;99.90
53282;DHT22;39167;52.794;6.892;2023-02-22T04:16:36;8.20;99.90
53282;DHT22;39167;52.794;6.892;2023-02-22T04:19:02;8.20;99.90
53282;DHT22;39167;52.794;6.892;2023-02-22T04:21:27;8.10;99.90
53282;DHT22;39167;52.794;6.892;2023-02-22T04:23:53;8.10;99.90
53282;DHT22;39167;52.794;6.892;2023-02-22T04:26:18;8.50;99.90
53282;DHT22;39167;52.794;6.892;2023-02-22T04:28:44;8.10;99.90
53282;DHT22;39167;52.794;6.892;2023-02-22T04:31:10;8.10;99.90
53282;DHT22;39167;52.794;6.892;2023-02-22T04:33:36;8.10;99.90
53282;DHT22;39167;52.794;6.892;2023-02-22T04:36:01;8.10;99.90
53282;DHT22;39167;52.794;6.892;2023-02-22T04:38:27;8.10;99.90
53282;DHT22;39167;52.794;6.892;2023-02-22T04:40:53;8.30;99.90
53282;DHT22;39167;52.794;6.892;2023-02-22T04:43:19;8.40;99.90
53282;DHT22;39167;52.794;6.892;2023-02-22T04:45:45;8.00;99.90
53282;DHT22;39167;52.794;6.892;2023-02-22T04:48:11;8.00;99.90
53282;DHT22;39167;52.794;6.892;2023-02-22T04:50:36;8.00;99.90
53282;DHT22;39167;52.794;6.892;2023-02-22T04:53:04;8.00;99.90
53282;DHT22;39167;52.794;6.892;2023-02-22T04:55:29;8.00;99.90
53282;DHT22;39167;52.794;6.892;2023-02-22T04:57:55;8.00;99.90
53282;DHT22;39167;52.794;6.892;2023-02-22T05:00:22;8.00;99.90
53282;DHT22;39167;52.794;6.892;2023-02-22T05:02:49;8.00;99.90
53282;DHT22;39167;52.794;6.892;2023-02-22T05:05:17;8.00;99.90
53282;DHT22;39167;52.794;6.892;2023-02-22T05:07:43;8.00;99.90
53282;DHT22;39167;52.794;6.892;2023-02-22T05:10:09;7.90;99.90
53282;DHT22;39167;52.794;6.892;2023-02-22T05:12:35;8.00;99.90
53282;DHT22;39167;52.794;6.892;2023-02-22T05:15:03;7.90;99.90
53282;DHT22;39167;52.794;6.892;2023-02-22T05:17:28;8.00;99.90
53282;DHT22;39167;52.794;6.892;2023-02-22T05:19:54;8.00;99.90
53282;DHT22;39167;52.794;6.892;2023-02-22T05:22:20;7.90;99.90
53282;DHT22;39167;52.794;6.892;2023-02-22T05:24:46;8.00;99.90
53282;DHT22;39167;52.794;6.892;2023-02-22T05:27:11;8.20;99.90
53282;DHT22;39167;52.794;6.892;2023-02-22T05:29:37;7.90;99.90
53282;DHT22;39167;52.794;6.892;2023-02-22T05:32:04;7.90;99.90
53282;DHT22;39167;52.794;6.892;2023-02-22T05:34:31;7.90;99.90
53282;DHT22;39167;52.794;6.892;2023-02-22T05:36:57;7.90;99.90
53282;DHT22;39167;52.794;6.892;2023-02-22T05:39:23;7.90;99.90
53282;DHT22;39167;52.794;6.892;2023-02-22T05:41:49;7.80;99.90
53282;DHT22;39167;52.794;6.892;2023-02-22T05:44:14;7.80;99.90
53282;DHT22;39167;52.794;6.892;2023-02-22T05:46:40;7.80;99.90
53282;DHT22;39167;52.794;6.892;2023-02-22T05:49:06;7.80;99.90
53282;DHT22;39167;52.794;6.892;2023-02-22T05:51:31;7.80;99.90
53282;DHT22;39167;52.794;6.892;2023-02-22T05:53:58;7.80;99.90
53282;DHT22;39167;52.794;6.892;2023-02-22T05:56:26;7.80;99.90
53282;DHT22;39167;52.794;6.892;2023-02-22T05:58:52;7.80;99.90
53282;DHT22;39167;52.794;6.892;2023-02-22T06:01:18;7.80;99.90
53282;DHT22;39167;52.794;6.892;2023-02-22T06:03:48;7.80;99.90
53282;DHT22;39167;52.794;6.892;2023-02-22T06:06:15;7.80;99.90
53282;DHT22;39167;52.794;6.892;2023-02-22T06:08:41;7.80;99.90
53282;DHT22;39167;52.794;6.892;2023-02-22T06:11:07;7.80;99.90
53282;DHT22;39167;52.794;6.892;2023-02-22T06:13:35;7.80;99.90
53282;DHT22;39167;52.794;6.892;2023-02-22T06:16:01;7.80;99.90
53282;DHT22;39167;52.794;6.892;2023-02-22T06:18:27;7.80;99.90
53282;DHT22;39167;52.794;6.892;2023-02-22T06:20:56;7.80;99.90
53282;DHT22;39167;52.794;6.892;2023-02-22T06:23:22;7.80;99.90
53282;DHT22;39167;52.794;6.892;2023-02-22T06:25:48;7.70;99.90
53282;DHT22;39167;52.794;6.892;2023-02-22T06:28:13;7.70;99.90
53282;DHT22;39167;52.794;6.892;2023-02-22T06:30:40;7.70;99.90
53282;DHT22;39167;52.794;6.892;2023-02-22T06:33:08;7.70;99.90
53282;DHT22;39167;52.794;6.892;2023-02-22T06:35:33;7.70;99.90
53282;DHT22;39167;52.794;6.892;2023-02-22T06:37:59;7.70;99.90
53282;DHT22;39167;52.794;6.892;2023-02-22T06:40:25;7.70;99.90
53282;DHT22;39167;52.794;6.892;2023-02-22T06:42:54;7.70;99.90
53282;DHT22;39167;52.794;6.892;2023-02-22T06:45:20;7.70;99.90
53282;DHT22;39167;52.794;6.892;2023-02-22T06:47:46;7.70;99.90
53282;DHT22;39167;52.794;6.892;2023-02-22T06:50:26;7.60;99.90
53282;DHT22;39167;52.794;6.892;2023-02-22T06:52:53;7.60;99.90
53282;DHT22;39167;52.794;6.892;2023-02-22T06:55:28;7.60;99.90
53282;DHT22;39167;52.794;6.892;2023-02-22T06:57:54;7.60;99.90
53282;DHT22;39167;52.794;6.892;2023-02-22T07:00:22;7.60;99.90
53282;DHT22;39167;52.794;6.892;2023-02-22T07:02:49;7.50;99.90
53282;DHT22;39167;52.794;6.892;2023-02-22T07:05:17;7.60;99.90
53282;DHT22;39167;52.794;6.892;2023-02-22T07:07:44;7.50;99.90
53282;DHT22;39167;52.794;6.892;2023-02-22T07:10:37;7.60;99.90
53282;DHT22;39167;52.794;6.892;2023-02-22T07:13:05;7.50;99.90
53282;DHT22;39167;52.794;6.892;2023-02-22T07:15:32;7.50;99.90
53282;DHT22;39167;52.794;6.892;2023-02-22T07:17:58;7.50;99.90
53282;DHT22;39167;52.794;6.892;2023-02-22T07:20:26;7.50;99.90
53282;DHT22;39167;52.794;6.892;2023-02-22T07:22:52;7.80;99.90
53282;DHT22;39167;52.794;6.892;2023-02-22T07:25:18;7.50;99.90
53282;DHT22;39167;52.794;6.892;2023-02-22T07:27:45;7.50;99.90
53282;DHT22;39167;52.794;6.892;2023-02-22T07:30:17;7.50;99.90
53282;DHT22;39167;52.794;6.892;2023-02-22T07:32:45;7.50;99.90
53282;DHT22;39167;52.794;6.892;2023-02-22T07:35:19;7.50;99.90
53282;DHT22;39167;52.794;6.892;2023-02-22T07:37:45;7.80;99.90
53282;DHT22;39167;52.794;6.892;2023-02-22T07:40:13;7.50;99.90
53282;DHT22;39167;52.794;6.892;2023-02-22T07:43:14;7.50;99.90
53282;DHT22;39167;52.794;6.892;2023-02-22T07:45:40;7.50;99.90
53282;DHT22;39167;52.794;6.892;2023-02-22T07:48:07;7.60;99.90
53282;DHT22;39167;52.794;6.892;2023-02-22T07:50:33;7.50;99.90
53282;DHT22;39167;52.794;6.892;2023-02-22T07:53:05;7.50;99.90
53282;DHT22;39167;52.794;6.892;2023-02-22T07:55:32;7.60;99.90
53282;DHT22;39167;52.794;6.892;2023-02-22T07:58:00;7.60;99.90
53282;DHT22;39167;52.794;6.892;2023-02-22T08:00:33;7.50;99.90
53282;DHT22;39167;52.794;6.892;2023-02-22T08:03:01;7.50;99.90
53282;DHT22;39167;52.794;6.892;2023-02-22T08:05:28;7.50;99.90
53282;DHT22;39167;52.794;6.892;2023-02-22T08:07:55;7.60;99.90
53282;DHT22;39167;52.794;6.892;2023-02-22T08:10:22;7.50;99.90
53282;DHT22;39167;52.794;6.892;2023-02-22T08:12:49;7.60;99.90
53282;DHT22;39167;52.794;6.892;2023-02-22T08:15:30;7.60;99.90
53282;DHT22;39167;52.794;6.892;2023-02-22T08:17:57;7.60;99.90
53282;DHT22;39167;52.794;6.892;2023-02-22T08:20:24;7.50;99.90
53282;DHT22;39167;52.794;6.892;2023-02-22T08:22:50;7.50;99.90
53282;DHT22;39167;52.794;6.892;2023-02-22T08:25:17;7.60;99.90
53282;DHT22;39167;52.794;6.892;2023-02-22T08:27:43;7.50;99.90
53282;DHT22;39167;52.794;6.892;2023-02-22T08:30:17;7.60;99.90
53282;DHT22;39167;52.794;6.892;2023-02-22T08:32:45;7.50;99.90
53282;DHT22;39167;52.794;6.892;2023-02-22T08:35:12;7.70;99.90
53282;DHT22;39167;52.794;6.892;2023-02-22T08:37:44;7.50;99.90
53282;DHT22;39167;52.794;6.892;2023-02-22T08:40:12;7.60;99.90
53282;DHT22;39167;52.794;6.892;2023-02-22T08:42:38;7.70;99.90
53282;DHT22;39167;52.794;6.892;2023-02-22T08:45:04;7.60;99.90
53282;DHT22;39167;52.794;6.892;2023-02-22T08:47:30;7.50;99.90
53282;DHT22;39167;52.794;6.892;2023-02-22T08:49:56;7.60;99.90
53282;DHT22;39167;52.794;6.892;2023-02-22T08:52:21;7.80;99.90
53282;DHT22;39167;52.794;6.892;2023-02-22T08:54:47;7.70;99.90
53282;DHT22;39167;52.794;6.892;2023-02-22T08:57:13;7.60;99.90
53282;DHT22;39167;52.794;6.892;2023-02-22T08:59:39;7.60;99.90
53282;DHT22;39167;52.794;6.892;2023-02-22T09:02:09;7.60;99.90
53282;DHT22;39167;52.794;6.892;2023-02-22T09:04:38;7.60;99.90
53282;DHT22;39167;52.794;6.892;2023-02-22T09:07:03;7.60;99.90
53282;DHT22;39167;52.794;6.892;2023-02-22T09:09:29;7.60;99.90
53282;DHT22;39167;52.794;6.892;2023-02-22T09:11:55;7.60;99.90
53282;DHT22;39167;52.794;6.892;2023-02-22T09:14:20;7.60;99.90
53282;DHT22;39167;52.794;6.892;2023-02-22T09:16:46;7.60;99.90
53282;DHT22;39167;52.794;6.892;2023-02-22T09:19:12;7.50;99.90
53282;DHT22;39167;52.794;6.892;2023-02-22T09:21:37;7.60;99.90
53282;DHT22;39167;52.794;6.892;2023-02-22T09:24:05;7.60;99.90
53282;DHT22;39167;52.794;6.892;2023-02-22T09:26:34;7.60;99.90
53282;DHT22;39167;52.794;6.892;2023-02-22T09:28:59;7.60;99.90
53282;DHT22;39167;52.794;6.892;2023-02-22T09:31:26;7.60;99.90
53282;DHT22;39167;52.794;6.892;2023-02-22T09:37:04;7.50;99.90
53282;DHT22;39167;52.794;6.892;2023-02-22T09:39:33;7.50;99.90
53282;DHT22;39167;52.794;6.892;2023-02-22T09:42:30;7.50;99.90
53282;DHT22;39167;52.794;6.892;2023-02-22T09:47:32;7.90;99.90
53282;DHT22;39167;52.794;6.892;2023-02-22T09:50:09;7.60;99.90
53282;DHT22;39167;52.794;6.892;2023-02-22T09:53:01;7.50;99.90
53282;DHT22;39167;52.794;6.892;2023-02-22T09:55:36;7.50;99.90
53282;DHT22;39167;52.794;6.892;2023-02-22T09:58:28;8.00;99.90
53282;DHT22;39167;52.794;6.892;2023-02-22T10:01:26;7.50;99.90
53282;DHT22;39167;52.794;6.892;2023-02-22T10:06:41;7.60;99.90
53282;DHT22;39167;52.794;6.892;2023-02-22T10:09:10;7.80;99.90
53282;DHT22;39167;52.794;6.892;2023-02-22T10:12:08;7.60;99.90
53282;DHT22;39167;52.794;6.892;2023-02-22T10:17:53;7.60;99.90
53282;DHT22;39167;52.794;6.892;2023-02-22T10:20:25;7.60;99.90
53282;DHT22;39167;52.794;6.892;2023-02-22T10:26:23;7.60;99.90
53282;DHT22;39167;52.794;6.892;2023-02-22T10:29:44;7.70;99.90
53282;DHT22;39167;52.794;6.892;2023-02-22T10:32:00;7.60;99.90
53282;DHT22;39167;52.794;6.892;2023-02-22T10:34:47;7.60;99.90
53282;DHT22;39167;52.794;6.892;2023-02-22T10:37:26;7.60;99.90
53282;DHT22;39167;52.794;6.892;2023-02-22T10:40:00;7.70;99.90
53282;DHT22;39167;52.794;6.892;2023-02-22T10:42:29;7.70;99.90
53282;DHT22;39167;52.794;6.892;2023-02-22T10:44:55;7.70;99.90
53282;DHT22;39167;52.794;6.892;2023-02-22T10:47:22;7.80;99.90
53282;DHT22;39167;52.794;6.892;2023-02-22T10:49:57;7.70;99.90
53282;DHT22;39167;52.794;6.892;2023-02-22T10:52:30;7.80;99.90
53282;DHT22;39167;52.794;6.892;2023-02-22T10:54:59;7.80;99.90
53282;DHT22;39167;52.794;6.892;2023-02-22T10:57:29;7.80;99.90
53282;DHT22;39167;52.794;6.892;2023-02-22T10:59:56;7.80;99.90
53282;DHT22;39167;52.794;6.892;2023-02-22T11:02:31;7.80;99.90
53282;DHT22;39167;52.794;6.892;2023-02-22T11:04:59;7.80;99.90
53282;DHT22;39167;52.794;6.892;2023-02-22T11:07:33;7.80;99.90
53282;DHT22;39167;52.794;6.892;2023-02-22T11:10:02;7.80;99.90
53282;DHT22;39167;52.794;6.892;2023-02-22T11:12:40;7.80;99.90
53282;DHT22;39167;52.794;6.892;2023-02-22T11:17:42;7.80;99.90
53282;DHT22;39167;52.794;6.892;2023-02-22T11:20:29;7.80;99.90
53282;DHT22;39167;52.794;6.892;2023-02-22T11:23:03;7.80;99.90
53282;DHT22;39167;52.794;6.892;2023-02-22T11:25:33;7.90;99.90
53282;DHT22;39167;52.794;6.892;2023-02-22T11:28:19;7.90;99.90
53282;DHT22;39167;52.794;6.892;2023-02-22T11:30:56;7.90;99.90
53282;DHT22;39167;52.794;6.892;2023-02-22T11:33:24;7.90;99.90
53282;DHT22;39167;52.794;6.892;2023-02-22T11:35:57;7.90;99.90
53282;DHT22;39167;52.794;6.892;2023-02-22T11:38:28;7.90;99.90
53282;DHT22;39167;52.794;6.892;2023-02-22T11:41:06;8.00;99.90
53282;DHT22;39167;52.794;6.892;2023-02-22T11:43:33;8.00;99.90
53282;DHT22;39167;52.794;6.892;2023-02-22T11:46:05;8.00;99.90
53282;DHT22;39167;52.794;6.892;2023-02-22T11:48:35;8.00;99.90
53282;DHT22;39167;52.794;6.892;2023-02-22T11:51:31;8.10;99.90
53282;DHT22;39167;52.794;6.892;2023-02-22T11:57:01;8.10;99.90
53282;DHT22;39167;52.794;6.892;2023-02-22T12:00:03;8.10;99.90
53282;DHT22;39167;52.794;6.892;2023-02-22T12:05:23;8.20;99.90
53282;DHT22;39167;52.794;6.892;2023-02-22T12:08:00;8.20;99.90
53282;DHT22;39167;52.794;6.892;2023-02-22T12:10:46;8.20;99.90
53282;DHT22;39167;52.794;6.892;2023-02-22T12:13:43;8.20;99.90
53282;DHT22;39167;52.794;6.892;2023-02-22T12:21:47;8.30;99.90
53282;DHT22;39167;52.794;6.892;2023-02-22T12:24:20;8.20;99.90
53282;DHT22;39167;52.794;6.892;2023-02-22T12:26:55;8.20;99.90
53282;DHT22;39167;52.794;6.892;2023-02-22T12:32:47;8.20;99.90
53282;DHT22;39167;52.794;6.892;2023-02-22T12:35:27;8.20;99.90
53282;DHT22;39167;52.794;6.892;2023-02-22T12:40:32;8.20;99.90
53282;DHT22;39167;52.794;6.892;2023-02-22T12:43:27;8.30;99.90
53282;DHT22;39167;52.794;6.892;2023-02-22T12:46:08;8.20;99.90
53282;DHT22;39167;52.794;6.892;2023-02-22T12:49:16;8.30;99.90
53282;DHT22;39167;52.794;6.892;2023-02-22T12:54:47;8.30;99.90
53282;DHT22;39167;52.794;6.892;2023-02-22T12:59:50;8.40;99.90
53282;DHT22;39167;52.794;6.892;2023-02-22T13:02:34;8.40;99.90
53282;DHT22;39167;52.794;6.892;2023-02-22T13:05:01;8.60;99.90
53282;DHT22;39167;52.794;6.892;2023-02-22T13:13:16;8.50;99.90
53282;DHT22;39167;52.794;6.892;2023-02-22T13:16:08;8.50;99.90
53282;DHT22;39167;52.794;6.892;2023-02-22T13:19:00;8.50;99.90
53282;DHT22;39167;52.794;6.892;2023-02-22T13:21:48;8.50;99.90
53282;DHT22;39167;52.794;6.892;2023-02-22T13:27:16;8.60;99.90
53282;DHT22;39167;52.794;6.892;2023-02-22T13:29:47;8.60;99.90
53282;DHT22;39167;52.794;6.892;2023-02-22T13:32:45;8.60;99.90
53282;DHT22;39167;52.794;6.892;2023-02-22T13:35:34;8.70;99.90
53282;DHT22;39167;52.794;6.892;2023-02-22T13:38:19;8.80;99.90
53282;DHT22;39167;52.794;6.892;2023-02-22T13:41:08;8.80;99.90
53282;DHT22;39167;52.794;6.892;2023-02-22T13:43:59;8.80;99.90
53282;DHT22;39167;52.794;6.892;2023-02-22T13:52:10;8.90;99.90
53282;DHT22;39167;52.794;6.892;2023-02-22T13:54:45;8.90;99.90
53282;DHT22;39167;52.794;6.892;2023-02-22T13:57:37;9.00;99.90
53282;DHT22;39167;52.794;6.892;2023-02-22T14:03:04;9.00;99.90
53282;DHT22;39167;52.794;6.892;2023-02-22T14:05:57;9.10;99.90
53282;DHT22;39167;52.794;6.892;2023-02-22T14:10:52;9.10;99.90
53282;DHT22;39167;52.794;6.892;2023-02-22T14:13:29;9.20;99.90
53282;DHT22;39167;52.794;6.892;2023-02-22T14:18:41;9.20;99.90
53282;DHT22;39167;52.794;6.892;2023-02-22T14:21:18;9.20;99.90
53282;DHT22;39167;52.794;6.892;2023-02-22T14:24:14;9.30;99.90
53282;DHT22;39167;52.794;6.892;2023-02-22T14:26:53;9.30;99.90
53282;DHT22;39167;52.794;6.892;2023-02-22T14:29:19;9.30;99.90
53282;DHT22;39167;52.794;6.892;2023-02-22T14:34:14;9.30;99.90
53282;DHT22;39167;52.794;6.892;2023-02-22T14:47:54;9.30;99.90
53282;DHT22;39167;52.794;6.892;2023-02-22T14:53:55;9.30;99.90
53282;DHT22;39167;52.794;6.892;2023-02-22T14:56:19;9.30;99.90
53282;DHT22;39167;52.794;6.892;2023-02-22T14:58:55;9.40;99.90
53282;DHT22;39167;52.794;6.892;2023-02-22T15:01:23;9.30;99.90
53282;DHT22;39167;52.794;6.892;2023-02-22T15:03:49;9.40;99.90
53282;DHT22;39167;52.794;6.892;2023-02-22T15:06:20;9.40;99.90
53282;DHT22;39167;52.794;6.892;2023-02-22T15:08:48;9.40;99.90
53282;DHT22;39167;52.794;6.892;2023-02-22T15:11:26;9.10;99.90
53282;DHT22;39167;52.794;6.892;2023-02-22T15:13:55;9.40;99.90
53282;DHT22;39167;52.794;6.892;2023-02-22T15:16:24;9.40;99.90
53282;DHT22;39167;52.794;6.892;2023-02-22T15:18:56;9.40;99.90
53282;DHT22;39167;52.794;6.892;2023-02-22T15:21:25;9.40;99.90
53282;DHT22;39167;52.794;6.892;2023-02-22T15:24:25;9.40;99.90
53282;DHT22;39167;52.794;6.892;2023-02-22T15:26:52;9.40;99.90
53282;DHT22;39167;52.794;6.892;2023-02-22T15:29:26;9.40;99.90
53282;DHT22;39167;52.794;6.892;2023-02-22T15:31:56;9.40;99.90
53282;DHT22;39167;52.794;6.892;2023-02-22T15:34:30;9.40;99.90
53282;DHT22;39167;52.794;6.892;2023-02-22T15:37:01;9.40;99.90
53282;DHT22;39167;52.794;6.892;2023-02-22T15:39:37;9.40;99.90
53282;DHT22;39167;52.794;6.892;2023-02-22T15:42:10;9.40;99.90
53282;DHT22;39167;52.794;6.892;2023-02-22T15:44:44;9.40;99.90
53282;DHT22;39167;52.794;6.892;2023-02-22T15:47:28;9.40;99.90
53282;DHT22;39167;52.794;6.892;2023-02-22T15:50:23;9.40;99.90
53282;DHT22;39167;52.794;6.892;2023-02-22T15:52:55;9.60;99.90
53282;DHT22;39167;52.794;6.892;2023-02-22T15:55:42;9.40;99.90
53282;DHT22;39167;52.794;6.892;2023-02-22T16:00:46;9.40;99.90
53282;DHT22;39167;52.794;6.892;2023-02-22T16:03:17;9.30;99.90
53282;DHT22;39167;52.794;6.892;2023-02-22T16:05:48;9.40;99.90
53282;DHT22;39167;52.794;6.892;2023-02-22T16:08:18;9.30;99.90
53282;DHT22;39167;52.794;6.892;2023-02-22T16:10:51;9.40;99.90
53282;DHT22;39167;52.794;6.892;2023-02-22T16:16:02;9.40;99.90
53282;DHT22;39167;52.794;6.892;2023-02-22T16:18:34;9.40;99.90
53282;DHT22;39167;52.794;6.892;2023-02-22T16:21:12;9.30;99.90
53282;DHT22;39167;52.794;6.892;2023-02-22T16:23:49;9.40;99.90
53282;DHT22;39167;52.794;6.892;2023-02-22T16:26:31;9.40;99.90
53282;DHT22;39167;52.794;6.892;2023-02-22T16:28:59;9.30;99.90
53282;DHT22;39167;52.794;6.892;2023-02-22T16:31:30;9.30;99.90
53282;DHT22;39167;52.794;6.892;2023-02-22T16:33:59;9.30;99.90
53282;DHT22;39167;52.794;6.892;2023-02-22T16:36:41;9.30;99.90
53282;DHT22;39167;52.794;6.892;2023-02-22T16:39:21;9.30;99.90
53282;DHT22;39167;52.794;6.892;2023-02-22T16:41:49;9.30;99.90
53282;DHT22;39167;52.794;6.892;2023-02-22T16:44:15;9.30;99.90
53282;DHT22;39167;52.794;6.892;2023-02-22T16:46:42;9.30;99.90
53282;DHT22;39167;52.794;6.892;2023-02-22T16:49:10;9.30;99.90
53282;DHT22;39167;52.794;6.892;2023-02-22T16:52:21;9.20;99.90
53282;DHT22;39167;52.794;6.892;2023-02-22T16:54:44;9.20;99.90
53282;DHT22;39167;52.794;6.892;2023-02-22T16:57:19;9.20;99.90
53282;DHT22;39167;52.794;6.892;2023-02-22T16:59:46;9.20;99.90
53282;DHT22;39167;52.794;6.892;2023-02-22T17:02:15;9.10;99.90
53282;DHT22;39167;52.794;6.892;2023-02-22T17:04:41;9.20;99.90
53282;DHT22;39167;52.794;6.892;2023-02-22T17:07:15;9.20;99.90
53282;DHT22;39167;52.794;6.892;2023-02-22T17:09:40;9.10;99.90
53282;DHT22;39167;52.794;6.892;2023-02-22T17:12:06;9.10;99.90
53282;DHT22;39167;52.794;6.892;2023-02-22T17:14:34;9.10;99.90
53282;DHT22;39167;52.794;6.892;2023-02-22T17:17:00;9.10;99.90
53282;DHT22;39167;52.794;6.892;2023-02-22T17:19:26;9.10;99.90
53282;DHT22;39167;52.794;6.892;2023-02-22T17:21:52;9.10;99.90
53282;DHT22;39167;52.794;6.892;2023-02-22T17:24:20;9.10;99.90
53282;DHT22;39167;52.794;6.892;2023-02-22T17:26:53;9.10;99.90
53282;DHT22;39167;52.794;6.892;2023-02-22T17:29:20;9.10;99.90
53282;DHT22;39167;52.794;6.892;2023-02-22T17:31:46;9.10;99.90
53282;DHT22;39167;52.794;6.892;2023-02-22T17:34:13;9.00;99.90
53282;DHT22;39167;52.794;6.892;2023-02-22T17:36:38;9.10;99.90
53282;DHT22;39167;52.794;6.892;2023-02-22T17:39:05;9.10;99.90
53282;DHT22;39167;52.794;6.892;2023-02-22T17:41:30;9.00;99.90
53282;DHT22;39167;52.794;6.892;2023-02-22T17:43:56;9.00;99.90
53282;DHT22;39167;52.794;6.892;2023-02-22T17:46:25;9.00;99.90
53282;DHT22;39167;52.794;6.892;2023-02-22T17:48:51;9.00;99.90
53282;DHT22;39167;52.794;6.892;2023-02-22T17:51:21;9.00;99.90
53282;DHT22;39167;52.794;6.892;2023-02-22T17:53:47;9.10;99.90
53282;DHT22;39167;52.794;6.892;2023-02-22T17:56:15;9.10;99.90
53282;DHT22;39167;52.794;6.892;2023-02-22T17:58:47;9.00;99.90
53282;DHT22;39167;52.794;6.892;2023-02-22T18:01:28;9.00;99.90
53282;DHT22;39167;52.794;6.892;2023-02-22T18:03:56;9.00;99.90
53282;DHT22;39167;52.794;6.892;2023-02-22T18:06:24;9.00;99.90
53282;DHT22;39167;52.794;6.892;2023-02-22T18:08:52;9.00;99.90
53282;DHT22;39167;52.794;6.892;2023-02-22T18:11:19;9.00;99.90
53282;DHT22;39167;52.794;6.892;2023-02-22T18:13:45;9.00;99.90
53282;DHT22;39167;52.794;6.892;2023-02-22T18:16:11;9.00;99.90
53282;DHT22;39167;52.794;6.892;2023-02-22T18:18:37;9.00;99.90
53282;DHT22;39167;52.794;6.892;2023-02-22T18:21:03;9.00;99.90